sensor_id;sensor_type;location;lat;lon;timestamp;temperature;humidity
7384;DHT22;3733;47.994;8.820;2023-04-06T00:01:27;0.60;62.00
7384;DHT22;3733;47.994;8.820;2023-04-06T00:03:53;0.60;62.40
7384;DHT22;3733;47.994;8.820;2023-04-06T00:06:18;0.50;62.80
7384;DHT22;3733;47.994;8.820;2023-04-06T00:08:44;0.50;63.30
7384;DHT22;3733;47.994;8.820;2023-04-06T00:11:10;0.50;63.20
7384;DHT22;3733;47.994;8.820;2023-04-06T00:13:35;0.40;63.20
7384;DHT22;3733;47.994;8.820;2023-04-06T00:16:01;0.40;63.40
7384;DHT22;3733;47.994;8.820;2023-04-06T00:18:27;0.40;63.40
7384;DHT22;3733;47.994;8.820;2023-04-06T00:20:53;0.40;63.70
7384;DHT22;3733;47.994;8.820;2023-04-06T00:23:18;0.30;63.80
7384;DHT22;3733;47.994;8.820;2023-04-06T00:25:44;0.30;64.20
7384;DHT22;3733;47.994;8.820;2023-04-06T00:28:10;0.30;64.40
7384;DHT22;3733;47.994;8.820;2023-04-06T00:30:35;0.20;65.00
7384;DHT22;3733;47.994;8.820;2023-04-06T00:33:01;0.20;65.90
7384;DHT22;3733;47.994;8.820;2023-04-06T00:35:26;0.20;66.50
7384;DHT22;3733;47.994;8.820;2023-04-06T00:37:52;0.20;66.30
7384;DHT22;3733;47.994;8.820;2023-04-06T00:40:18;0.20;66.80
7384;DHT22;3733;47.994;8.820;2023-04-06T00:42:44;0.20;66.80
7384;DHT22;3733;47.994;8.820;2023-04-06T00:45:10;0.20;66.90
7384;DHT22;3733;47.994;8.820;2023-04-06T00:47:36;0.10;66.90
7384;DHT22;3733;47.994;8.820;2023-04-06T00:50:01;0.10;66.90
7384;DHT22;3733;47.994;8.820;2023-04-06T00:52:27;0.10;66.80
7384;DHT22;3733;47.994;8.820;2023-04-06T00:54:53;0.10;66.90
7384;DHT22;3733;47.994;8.820;2023-04-06T00:57:19;0.10;66.90
7384;DHT22;3733;47.994;8.820;2023-04-06T00:59:45;0.00;66.80
7384;DHT22;3733;47.994;8.820;2023-04-06T01:02:11;0.00;66.70
7384;DHT22;3733;47.994;8.820;2023-04-06T01:04:37;0.00;66.90
7384;DHT22;3733;47.994;8.820;2023-04-06T01:07:02;-0.10;67.10
7384;DHT22;3733;47.994;8.820;2023-04-06T01:09:28;-0.10;67.40
7384;DHT22;3733;47.994;8.820;2023-04-06T01:11:58;-0.10;67.90
7384;DHT22;3733;47.994;8.820;2023-04-06T01:14:24;-0.20;68.30
7384;DHT22;3733;47.994;8.820;2023-04-06T01:16:51;-0.20;68.20
7384;DHT22;3733;47.994;8.820;2023-04-06T01:19:17;-0.20;68.70
7384;DHT22;3733;47.994;8.820;2023-04-06T01:21:43;-0.20;68.70
7384;DHT22;3733;47.994;8.820;2023-04-06T01:24:09;-0.20;68.90
7384;DHT22;3733;47.994;8.820;2023-04-06T01:26:35;-0.20;69.40
7384;DHT22;3733;47.994;8.820;2023-04-06T01:29:02;-0.20;69.80
7384;DHT22;3733;47.994;8.820;2023-04-06T01:31:28;-0.30;69.80
7384;DHT22;3733;47.994;8.820;2023-04-06T01:33:54;-0.30;69.70
7384;DHT22;3733;47.994;8.820;2023-04-06T01:36:20;-0.30;70.00
7384;DHT22;3733;47.994;8.820;2023-04-06T01:38:46;-0.30;70.20
7384;DHT22;3733;47.994;8.820;2023-04-06T01:41:11;-0.30;70.30
7384;DHT22;3733;47.994;8.820;2023-04-06T01:43:37;-0.30;70.60
7384;DHT22;3733;47.994;8.820;2023-04-06T01:46:03;-0.40;70.60
7384;DHT22;3733;47.994;8.820;2023-04-06T01:48:29;-0.40;71.20
7384;DHT22;3733;47.994;8.820;2023-04-06T01:50:54;-0.40;72.40
7384;DHT22;3733;47.994;8.820;2023-04-06T01:53:20;-0.40;72.60
7384;DHT22;3733;47.994;8.820;2023-04-06T01:55:46;-0.50;72.40
7384;DHT22;3733;47.994;8.820;2023-04-06T01:58:12;-0.50;72.70
7384;DHT22;3733;47.994;8.820;2023-04-06T02:00:38;-0.50;72.70
7384;DHT22;3733;47.994;8.820;2023-04-06T02:03:04;-0.50;72.20
7384;DHT22;3733;47.994;8.820;2023-04-06T02:05:31;-0.50;72.90
7384;DHT22;3733;47.994;8.820;2023-04-06T02:07:58;-0.50;73.50
7384;DHT22;3733;47.994;8.820;2023-04-06T02:10:24;-0.50;72.70
7384;DHT22;3733;47.994;8.820;2023-04-06T02:12:50;-0.50;72.20
7384;DHT22;3733;47.994;8.820;2023-04-06T02:15:15;-0.60;72.20
7384;DHT22;3733;47.994;8.820;2023-04-06T02:17:42;-0.60;72.80
7384;DHT22;3733;47.994;8.820;2023-04-06T02:20:08;-0.60;73.00
7384;DHT22;3733;47.994;8.820;2023-04-06T02:22:35;-0.70;73.10
7384;DHT22;3733;47.994;8.820;2023-04-06T02:25:01;-0.70;73.60
7384;DHT22;3733;47.994;8.820;2023-04-06T02:27:26;-0.80;73.70
7384;DHT22;3733;47.994;8.820;2023-04-06T02:29:52;-0.80;74.10
7384;DHT22;3733;47.994;8.820;2023-04-06T02:32:18;-0.80;74.30
7384;DHT22;3733;47.994;8.820;2023-04-06T02:34:43;-0.90;74.90
7384;DHT22;3733;47.994;8.820;2023-04-06T02:37:09;-0.90;75.30
7384;DHT22;3733;47.994;8.820;2023-04-06T02:39:35;-0.90;75.90
7384;DHT22;3733;47.994;8.820;2023-04-06T02:42:01;-1.00;76.40
7384;DHT22;3733;47.994;8.820;2023-04-06T02:44:26;-1.00;76.40
7384;DHT22;3733;47.994;8.820;2023-04-06T02:46:52;-1.00;76.60
7384;DHT22;3733;47.994;8.820;2023-04-06T02:49:17;-1.00;77.60
7384;DHT22;3733;47.994;8.820;2023-04-06T02:51:43;-1.00;77.50
7384;DHT22;3733;47.994;8.820;2023-04-06T02:54:09;-1.00;77.70
7384;DHT22;3733;47.994;8.820;2023-04-06T02:56:34;-1.10;77.90
7384;DHT22;3733;47.994;8.820;2023-04-06T02:59:00;-1.10;78.50
7384;DHT22;3733;47.994;8.820;2023-04-06T03:01:26;-1.10;79.00
7384;DHT22;3733;47.994;8.820;2023-04-06T03:03:52;-1.10;78.30
7384;DHT22;3733;47.994;8.820;2023-04-06T03:06:17;-1.10;78.50
7384;DHT22;3733;47.994;8.820;2023-04-06T03:08:43;-1.10;79.10
7384;DHT22;3733;47.994;8.820;2023-04-06T03:11:09;-1.10;79.40
7384;DHT22;3733;47.994;8.820;2023-04-06T03:13:35;-1.10;79.40
7384;DHT22;3733;47.994;8.820;2023-04-06T03:16:01;-1.20;79.10
7384;DHT22;3733;47.994;8.820;2023-04-06T03:18:26;-1.20;79.70
7384;DHT22;3733;47.994;8.820;2023-04-06T03:20:52;-1.20;80.00
7384;DHT22;3733;47.994;8.820;2023-04-06T03:23:21;-1.20;80.00
7384;DHT22;3733;47.994;8.820;2023-04-06T03:25:46;-1.20;80.10
7384;DHT22;3733;47.994;8.820;2023-04-06T03:28:12;-1.30;80.20
7384;DHT22;3733;47.994;8.820;2023-04-06T03:30:38;-1.30;81.10
7384;DHT22;3733;47.994;8.820;2023-04-06T03:33:03;-1.30;82.10
7384;DHT22;3733;47.994;8.820;2023-04-06T03:35:29;-1.30;82.00
7384;DHT22;3733;47.994;8.820;2023-04-06T03:37:55;-1.30;81.80
7384;DHT22;3733;47.994;8.820;2023-04-06T03:40:21;-1.30;81.30
7384;DHT22;3733;47.994;8.820;2023-04-06T03:42:46;-1.40;81.90
7384;DHT22;3733;47.994;8.820;2023-04-06T03:45:12;-1.40;81.70
7384;DHT22;3733;47.994;8.820;2023-04-06T03:47:40;-1.40;81.30
7384;DHT22;3733;47.994;8.820;2023-04-06T03:50:06;-1.40;81.10
7384;DHT22;3733;47.994;8.820;2023-04-06T03:52:32;-1.40;81.20
7384;DHT22;3733;47.994;8.820;2023-04-06T03:54:57;-1.40;81.20
7384;DHT22;3733;47.994;8.820;2023-04-06T03:57:23;-1.50;81.70
7384;DHT22;3733;47.994;8.820;2023-04-06T03:59:49;-1.50;82.40
7384;DHT22;3733;47.994;8.820;2023-04-06T04:02:14;-1.50;82.30
7384;DHT22;3733;47.994;8.820;2023-04-06T04:04:40;-1.50;82.60
7384;DHT22;3733;47.994;8.820;2023-04-06T04:07:06;-1.60;83.70
7384;DHT22;3733;47.994;8.820;2023-04-06T04:09:31;-1.60;83.60
7384;DHT22;3733;47.994;8.820;2023-04-06T04:11:57;-1.60;83.20
7384;DHT22;3733;47.994;8.820;2023-04-06T04:14:22;-1.60;83.60
7384;DHT22;3733;47.994;8.820;2023-04-06T04:16:48;-1.60;83.10
7384;DHT22;3733;47.994;8.820;2023-04-06T04:19:14;-1.60;83.70
7384;DHT22;3733;47.994;8.820;2023-04-06T04:21:44;-1.60;83.30
7384;DHT22;3733;47.994;8.820;2023-04-06T04:24:10;-1.60;83.30
7384;DHT22;3733;47.994;8.820;2023-04-06T04:26:36;-1.60;83.50
7384;DHT22;3733;47.994;8.820;2023-04-06T04:29:02;-1.60;83.20
7384;DHT22;3733;47.994;8.820;2023-04-06T04:31:28;-1.60;83.10
7384;DHT22;3733;47.994;8.820;2023-04-06T04:33:53;-1.70;83.40
7384;DHT22;3733;47.994;8.820;2023-04-06T04:36:19;-1.70;85.00
7384;DHT22;3733;47.994;8.820;2023-04-06T04:38:45;-1.70;85.00
7384;DHT22;3733;47.994;8.820;2023-04-06T04:41:10;-1.70;85.30
7384;DHT22;3733;47.994;8.820;2023-04-06T04:43:36;-1.70;85.30
7384;DHT22;3733;47.994;8.820;2023-04-06T04:46:02;-1.70;84.40
7384;DHT22;3733;47.994;8.820;2023-04-06T04:48:29;-1.60;84.30
7384;DHT22;3733;47.994;8.820;2023-04-06T04:50:54;-1.70;84.70
7384;DHT22;3733;47.994;8.820;2023-04-06T04:53:20;-1.70;84.20
7384;DHT22;3733;47.994;8.820;2023-04-06T04:55:46;-1.70;83.90
7384;DHT22;3733;47.994;8.820;2023-04-06T04:58:12;-1.70;83.50
7384;DHT22;3733;47.994;8.820;2023-04-06T05:00:42;-1.70;83.30
7384;DHT22;3733;47.994;8.820;2023-04-06T05:03:08;-1.70;83.60
7384;DHT22;3733;47.994;8.820;2023-04-06T05:05:34;-1.70;84.00
7384;DHT22;3733;47.994;8.820;2023-04-06T05:08:01;-1.70;83.90
7384;DHT22;3733;47.994;8.820;2023-04-06T05:10:26;-1.70;84.20
7384;DHT22;3733;47.994;8.820;2023-04-06T05:12:52;-1.70;84.30
7384;DHT22;3733;47.994;8.820;2023-04-06T05:15:18;-1.70;84.70
7384;DHT22;3733;47.994;8.820;2023-04-06T05:17:43;-1.70;84.50
7384;DHT22;3733;47.994;8.820;2023-04-06T05:20:09;-1.70;83.70
7384;DHT22;3733;47.994;8.820;2023-04-06T05:22:35;-1.70;83.40
7384;DHT22;3733;47.994;8.820;2023-04-06T05:25:02;-1.70;84.70
7384;DHT22;3733;47.994;8.820;2023-04-06T05:27:28;-1.70;84.20
7384;DHT22;3733;47.994;8.820;2023-04-06T05:29:54;-1.70;84.70
7384;DHT22;3733;47.994;8.820;2023-04-06T05:32:20;-1.60;85.60
7384;DHT22;3733;47.994;8.820;2023-04-06T05:34:48;-1.70;84.30
7384;DHT22;3733;47.994;8.820;2023-04-06T05:37:15;-1.70;84.50
7384;DHT22;3733;47.994;8.820;2023-04-06T05:39:41;-1.60;84.90
7384;DHT22;3733;47.994;8.820;2023-04-06T05:42:06;-1.50;84.40
7384;DHT22;3733;47.994;8.820;2023-04-06T05:44:32;-1.50;82.90
7384;DHT22;3733;47.994;8.820;2023-04-06T05:46:58;-1.40;82.30
7384;DHT22;3733;47.994;8.820;2023-04-06T05:49:23;-1.40;81.40
7384;DHT22;3733;47.994;8.820;2023-04-06T05:51:49;-1.30;79.90
7384;DHT22;3733;47.994;8.820;2023-04-06T05:54:15;-1.30;80.40
7384;DHT22;3733;47.994;8.820;2023-04-06T05:56:40;-1.20;80.90
7384;DHT22;3733;47.994;8.820;2023-04-06T05:59:06;-1.10;81.20
7384;DHT22;3733;47.994;8.820;2023-04-06T06:01:33;-1.10;80.60
7384;DHT22;3733;47.994;8.820;2023-04-06T06:04:03;-1.00;79.30
7384;DHT22;3733;47.994;8.820;2023-04-06T06:06:29;-0.90;80.60
7384;DHT22;3733;47.994;8.820;2023-04-06T06:08:57;-0.80;79.80
7384;DHT22;3733;47.994;8.820;2023-04-06T06:11:27;-0.80;77.60
7384;DHT22;3733;47.994;8.820;2023-04-06T06:13:52;-0.70;76.70
7384;DHT22;3733;47.994;8.820;2023-04-06T06:16:19;-0.60;75.00
7384;DHT22;3733;47.994;8.820;2023-04-06T06:18:45;-0.60;75.80
7384;DHT22;3733;47.994;8.820;2023-04-06T06:21:11;-0.50;76.80
7384;DHT22;3733;47.994;8.820;2023-04-06T06:23:41;-0.50;77.70
7384;DHT22;3733;47.994;8.820;2023-04-06T06:26:07;-0.40;76.60
7384;DHT22;3733;47.994;8.820;2023-04-06T06:28:32;-0.30;76.30
7384;DHT22;3733;47.994;8.820;2023-04-06T06:30:58;-0.30;76.50
7384;DHT22;3733;47.994;8.820;2023-04-06T06:33:24;-0.20;77.20
7384;DHT22;3733;47.994;8.820;2023-04-06T06:35:51;-0.10;77.20
7384;DHT22;3733;47.994;8.820;2023-04-06T06:38:17;0.00;76.30
7384;DHT22;3733;47.994;8.820;2023-04-06T06:40:43;0.10;75.90
7384;DHT22;3733;47.994;8.820;2023-04-06T06:43:08;0.20;74.60
7384;DHT22;3733;47.994;8.820;2023-04-06T06:45:34;0.30;74.10
7384;DHT22;3733;47.994;8.820;2023-04-06T06:48:00;0.30;73.30
7384;DHT22;3733;47.994;8.820;2023-04-06T06:50:26;0.40;73.50
7384;DHT22;3733;47.994;8.820;2023-04-06T06:52:52;0.50;73.10
7384;DHT22;3733;47.994;8.820;2023-04-06T06:55:17;0.50;72.70
7384;DHT22;3733;47.994;8.820;2023-04-06T06:57:44;0.60;73.20
7384;DHT22;3733;47.994;8.820;2023-04-06T07:00:12;0.70;72.80
7384;DHT22;3733;47.994;8.820;2023-04-06T07:02:40;0.80;72.70
7384;DHT22;3733;47.994;8.820;2023-04-06T07:05:06;0.80;72.00
7384;DHT22;3733;47.994;8.820;2023-04-06T07:07:32;0.90;71.70
7384;DHT22;3733;47.994;8.820;2023-04-06T07:09:59;1.00;70.70
7384;DHT22;3733;47.994;8.820;2023-04-06T07:12:25;1.10;70.60
7384;DHT22;3733;47.994;8.820;2023-04-06T07:14:51;1.10;69.20
7384;DHT22;3733;47.994;8.820;2023-04-06T07:17:16;1.20;68.00
7384;DHT22;3733;47.994;8.820;2023-04-06T07:19:42;1.20;67.60
7384;DHT22;3733;47.994;8.820;2023-04-06T07:22:08;1.30;67.10
7384;DHT22;3733;47.994;8.820;2023-04-06T07:24:33;1.30;66.00
7384;DHT22;3733;47.994;8.820;2023-04-06T07:27:00;1.40;66.10
7384;DHT22;3733;47.994;8.820;2023-04-06T07:29:28;1.50;66.60
7384;DHT22;3733;47.994;8.820;2023-04-06T07:31:55;1.60;66.00
7384;DHT22;3733;47.994;8.820;2023-04-06T07:34:21;1.70;65.30
7384;DHT22;3733;47.994;8.820;2023-04-06T07:36:46;1.80;65.10
7384;DHT22;3733;47.994;8.820;2023-04-06T07:39:12;1.90;65.00
7384;DHT22;3733;47.994;8.820;2023-04-06T07:41:38;2.00;65.40
7384;DHT22;3733;47.994;8.820;2023-04-06T07:44:03;2.20;65.80
7384;DHT22;3733;47.994;8.820;2023-04-06T07:46:30;2.30;65.90
7384;DHT22;3733;47.994;8.820;2023-04-06T07:48:57;2.40;65.60
7384;DHT22;3733;47.994;8.820;2023-04-06T07:51:23;2.50;65.90
7384;DHT22;3733;47.994;8.820;2023-04-06T07:53:50;2.60;64.80
7384;DHT22;3733;47.994;8.820;2023-04-06T07:56:16;2.70;64.70
7384;DHT22;3733;47.994;8.820;2023-04-06T07:58:41;2.70;63.40
7384;DHT22;3733;47.994;8.820;2023-04-06T08:01:07;2.80;62.60
7384;DHT22;3733;47.994;8.820;2023-04-06T08:03:36;3.00;62.60
7384;DHT22;3733;47.994;8.820;2023-04-06T08:06:02;3.10;62.20
7384;DHT22;3733;47.994;8.820;2023-04-06T08:08:28;3.30;62.10
7384;DHT22;3733;47.994;8.820;2023-04-06T08:10:53;3.40;61.80
7384;DHT22;3733;47.994;8.820;2023-04-06T08:13:19;3.60;61.80
7384;DHT22;3733;47.994;8.820;2023-04-06T08:15:45;3.70;61.40
7384;DHT22;3733;47.994;8.820;2023-04-06T08:18:11;3.90;60.90
7384;DHT22;3733;47.994;8.820;2023-04-06T08:20:37;4.10;60.20
7384;DHT22;3733;47.994;8.820;2023-04-06T08:23:03;4.30;59.50
7384;DHT22;3733;47.994;8.820;2023-04-06T08:25:29;4.40;59.20
7384;DHT22;3733;47.994;8.820;2023-04-06T08:27:55;4.60;58.60
7384;DHT22;3733;47.994;8.820;2023-04-06T08:30:21;4.80;58.60
7384;DHT22;3733;47.994;8.820;2023-04-06T08:32:47;5.00;57.50
7384;DHT22;3733;47.994;8.820;2023-04-06T08:35:12;5.10;56.20
7384;DHT22;3733;47.994;8.820;2023-04-06T08:37:39;5.30;55.50
7384;DHT22;3733;47.994;8.820;2023-04-06T08:40:05;5.50;54.30
7384;DHT22;3733;47.994;8.820;2023-04-06T08:42:39;5.60;52.80
7384;DHT22;3733;47.994;8.820;2023-04-06T08:45:09;5.80;51.90
7384;DHT22;3733;47.994;8.820;2023-04-06T08:47:36;6.00;51.50
7384;DHT22;3733;47.994;8.820;2023-04-06T08:50:06;6.10;50.10
7384;DHT22;3733;47.994;8.820;2023-04-06T08:52:33;6.30;49.60
7384;DHT22;3733;47.994;8.820;2023-04-06T08:54:59;6.50;49.40
7384;DHT22;3733;47.994;8.820;2023-04-06T08:57:26;6.70;48.80
7384;DHT22;3733;47.994;8.820;2023-04-06T08:59:52;6.80;48.80
7384;DHT22;3733;47.994;8.820;2023-04-06T09:02:20;7.00;48.70
7384;DHT22;3733;47.994;8.820;2023-04-06T09:04:48;7.20;47.30
7384;DHT22;3733;47.994;8.820;2023-04-06T09:07:14;7.30;47.30
7384;DHT22;3733;47.994;8.820;2023-04-06T09:09:40;7.40;46.40
7384;DHT22;3733;47.994;8.820;2023-04-06T09:12:28;7.60;46.70
7384;DHT22;3733;47.994;8.820;2023-04-06T09:14:55;7.80;46.50
7384;DHT22;3733;47.994;8.820;2023-04-06T09:17:28;7.90;45.60
7384;DHT22;3733;47.994;8.820;2023-04-06T09:19:55;8.00;45.50
7384;DHT22;3733;47.994;8.820;2023-04-06T09:22:21;8.10;43.80
7384;DHT22;3733;47.994;8.820;2023-04-06T09:24:49;8.10;41.80
7384;DHT22;3733;47.994;8.820;2023-04-06T09:27:15;8.10;42.60
7384;DHT22;3733;47.994;8.820;2023-04-06T09:29:42;8.10;43.60
7384;DHT22;3733;47.994;8.820;2023-04-06T09:32:09;8.30;43.60
7384;DHT22;3733;47.994;8.820;2023-04-06T09:34:42;8.40;43.90
7384;DHT22;3733;47.994;8.820;2023-04-06T09:37:17;8.60;43.10
7384;DHT22;3733;47.994;8.820;2023-04-06T09:39:44;8.70;42.00
7384;DHT22;3733;47.994;8.820;2023-04-06T09:42:23;8.80;42.30
7384;DHT22;3733;47.994;8.820;2023-04-06T09:44:49;8.90;42.50
7384;DHT22;3733;47.994;8.820;2023-04-06T09:47:16;9.10;42.70
7384;DHT22;3733;47.994;8.820;2023-04-06T09:49:43;9.20;41.00
7384;DHT22;3733;47.994;8.820;2023-04-06T09:52:11;9.20;40.10
7384;DHT22;3733;47.994;8.820;2023-04-06T09:54:38;9.10;39.40
7384;DHT22;3733;47.994;8.820;2023-04-06T09:57:07;9.00;39.10
7384;DHT22;3733;47.994;8.820;2023-04-06T10:05:05;9.30;40.50
7384;DHT22;3733;47.994;8.820;2023-04-06T10:07:33;9.50;40.10
7384;DHT22;3733;47.994;8.820;2023-04-06T10:09:59;9.60;40.50
7384;DHT22;3733;47.994;8.820;2023-04-06T10:12:26;9.80;39.50
7384;DHT22;3733;47.994;8.820;2023-04-06T10:14:52;9.80;38.20
7384;DHT22;3733;47.994;8.820;2023-04-06T10:17:18;9.80;38.00
7384;DHT22;3733;47.994;8.820;2023-04-06T10:22:24;9.90;39.70
7384;DHT22;3733;47.994;8.820;2023-04-06T10:24:51;10.10;39.00
7384;DHT22;3733;47.994;8.820;2023-04-06T10:27:27;10.30;38.60
7384;DHT22;3733;47.994;8.820;2023-04-06T10:29:54;10.50;39.20
7384;DHT22;3733;47.994;8.820;2023-04-06T10:32:19;10.50;36.70
7384;DHT22;3733;47.994;8.820;2023-04-06T10:34:45;10.50;37.00
7384;DHT22;3733;47.994;8.820;2023-04-06T10:37:13;10.60;37.30
7384;DHT22;3733;47.994;8.820;2023-04-06T10:39:52;10.60;37.20
7384;DHT22;3733;47.994;8.820;2023-04-06T10:42:37;10.70;36.90
7384;DHT22;3733;47.994;8.820;2023-04-06T10:45:07;10.70;35.60
7384;DHT22;3733;47.994;8.820;2023-04-06T10:47:43;10.80;37.00
7384;DHT22;3733;47.994;8.820;2023-04-06T10:50:13;10.90;37.40
7384;DHT22;3733;47.994;8.820;2023-04-06T10:52:40;11.10;38.00
7384;DHT22;3733;47.994;8.820;2023-04-06T10:55:06;11.30;37.00
7384;DHT22;3733;47.994;8.820;2023-04-06T10:57:34;11.30;34.20
7384;DHT22;3733;47.994;8.820;2023-04-06T11:00:03;11.30;35.70
7384;DHT22;3733;47.994;8.820;2023-04-06T11:02:29;11.40;35.00
7384;DHT22;3733;47.994;8.820;2023-04-06T11:04:58;11.40;33.60
7384;DHT22;3733;47.994;8.820;2023-04-06T11:07:25;11.50;34.00
7384;DHT22;3733;47.994;8.820;2023-04-06T11:09:53;11.50;31.50
7384;DHT22;3733;47.994;8.820;2023-04-06T11:12:26;11.50;31.10
7384;DHT22;3733;47.994;8.820;2023-04-06T11:15:00;11.60;33.10
7384;DHT22;3733;47.994;8.820;2023-04-06T11:17:36;11.60;31.60
7384;DHT22;3733;47.994;8.820;2023-04-06T11:20:04;11.80;33.70
7384;DHT22;3733;47.994;8.820;2023-04-06T11:22:31;11.90;34.50
7384;DHT22;3733;47.994;8.820;2023-04-06T11:25:09;12.10;34.70
7384;DHT22;3733;47.994;8.820;2023-04-06T11:27:35;12.30;32.60
7384;DHT22;3733;47.994;8.820;2023-04-06T11:30:01;12.40;32.40
7384;DHT22;3733;47.994;8.820;2023-04-06T11:32:27;12.50;32.40
7384;DHT22;3733;47.994;8.820;2023-04-06T11:34:53;12.50;31.40
7384;DHT22;3733;47.994;8.820;2023-04-06T11:37:19;12.60;31.10
7384;DHT22;3733;47.994;8.820;2023-04-06T11:39:50;12.70;32.40
7384;DHT22;3733;47.994;8.820;2023-04-06T11:42:26;12.90;33.30
7384;DHT22;3733;47.994;8.820;2023-04-06T11:44:55;13.00;31.70
7384;DHT22;3733;47.994;8.820;2023-04-06T11:47:32;13.10;30.40
7384;DHT22;3733;47.994;8.820;2023-04-06T11:52:33;13.10;31.10
7384;DHT22;3733;47.994;8.820;2023-04-06T11:55:09;13.20;31.40
7384;DHT22;3733;47.994;8.820;2023-04-06T11:57:35;13.20;30.70
7384;DHT22;3733;47.994;8.820;2023-04-06T12:00:01;13.30;32.00
7384;DHT22;3733;47.994;8.820;2023-04-06T12:02:26;13.40;32.40
7384;DHT22;3733;47.994;8.820;2023-04-06T12:04:52;13.30;29.50
7384;DHT22;3733;47.994;8.820;2023-04-06T12:07:17;13.20;29.90
7384;DHT22;3733;47.994;8.820;2023-04-06T12:09:43;13.10;29.60
7384;DHT22;3733;47.994;8.820;2023-04-06T12:12:09;13.20;31.00
7384;DHT22;3733;47.994;8.820;2023-04-06T12:14:34;13.40;30.60
7384;DHT22;3733;47.994;8.820;2023-04-06T12:17:00;13.60;30.00
7384;DHT22;3733;47.994;8.820;2023-04-06T12:19:26;13.80;31.10
7384;DHT22;3733;47.994;8.820;2023-04-06T12:21:52;13.90;29.30
7384;DHT22;3733;47.994;8.820;2023-04-06T12:24:19;13.70;29.10
7384;DHT22;3733;47.994;8.820;2023-04-06T12:26:44;13.70;30.30
7384;DHT22;3733;47.994;8.820;2023-04-06T12:29:10;13.90;31.30
7384;DHT22;3733;47.994;8.820;2023-04-06T12:31:38;14.10;30.00
7384;DHT22;3733;47.994;8.820;2023-04-06T12:34:06;14.20;30.80
7384;DHT22;3733;47.994;8.820;2023-04-06T12:36:33;14.30;31.00
7384;DHT22;3733;47.994;8.820;2023-04-06T12:38:59;14.40;29.70
7384;DHT22;3733;47.994;8.820;2023-04-06T12:41:26;14.50;29.00
7384;DHT22;3733;47.994;8.820;2023-04-06T12:43:51;14.50;28.60
7384;DHT22;3733;47.994;8.820;2023-04-06T12:46:17;14.40;28.50
7384;DHT22;3733;47.994;8.820;2023-04-06T12:48:43;14.20;28.90
7384;DHT22;3733;47.994;8.820;2023-04-06T12:51:09;14.00;29.20
7384;DHT22;3733;47.994;8.820;2023-04-06T12:53:35;13.70;29.50
7384;DHT22;3733;47.994;8.820;2023-04-06T12:56:02;13.70;30.60
7384;DHT22;3733;47.994;8.820;2023-04-06T12:58:28;13.70;31.50
7384;DHT22;3733;47.994;8.820;2023-04-06T13:00:55;13.90;32.60
7384;DHT22;3733;47.994;8.820;2023-04-06T13:03:22;14.10;30.70
7384;DHT22;3733;47.994;8.820;2023-04-06T13:05:50;14.30;31.30
7384;DHT22;3733;47.994;8.820;2023-04-06T13:08:17;14.60;31.70
7384;DHT22;3733;47.994;8.820;2023-04-06T13:10:50;15.00;31.00
7384;DHT22;3733;47.994;8.820;2023-04-06T13:13:23;15.30;29.80
7384;DHT22;3733;47.994;8.820;2023-04-06T13:15:49;15.50;28.40
7384;DHT22;3733;47.994;8.820;2023-04-06T13:18:15;15.40;28.20
7384;DHT22;3733;47.994;8.820;2023-04-06T13:20:41;15.30;28.20
7384;DHT22;3733;47.994;8.820;2023-04-06T13:23:07;15.10;27.00
7384;DHT22;3733;47.994;8.820;2023-04-06T13:25:33;14.80;27.20
7384;DHT22;3733;47.994;8.820;2023-04-06T13:27:59;14.60;27.10
7384;DHT22;3733;47.994;8.820;2023-04-06T13:30:25;14.60;27.50
7384;DHT22;3733;47.994;8.820;2023-04-06T13:32:51;14.60;27.20
7384;DHT22;3733;47.994;8.820;2023-04-06T13:35:17;14.70;27.10
7384;DHT22;3733;47.994;8.820;2023-04-06T13:37:43;14.70;28.10
7384;DHT22;3733;47.994;8.820;2023-04-06T13:40:10;14.80;28.30
7384;DHT22;3733;47.994;8.820;2023-04-06T13:42:36;14.80;27.70
7384;DHT22;3733;47.994;8.820;2023-04-06T13:45:03;14.70;27.10
7384;DHT22;3733;47.994;8.820;2023-04-06T13:47:29;14.70;28.10
7384;DHT22;3733;47.994;8.820;2023-04-06T13:49:55;14.60;27.20
7384;DHT22;3733;47.994;8.820;2023-04-06T13:52:21;14.40;27.90
7384;DHT22;3733;47.994;8.820;2023-04-06T13:54:48;14.00;26.90
7384;DHT22;3733;47.994;8.820;2023-04-06T13:57:13;13.90;28.00
7384;DHT22;3733;47.994;8.820;2023-04-06T13:59:39;13.70;27.90
7384;DHT22;3733;47.994;8.820;2023-04-06T14:02:07;13.60;28.80
7384;DHT22;3733;47.994;8.820;2023-04-06T14:04:34;13.50;28.00
7384;DHT22;3733;47.994;8.820;2023-04-06T14:07:01;13.50;28.80
7384;DHT22;3733;47.994;8.820;2023-04-06T14:09:28;13.50;28.90
7384;DHT22;3733;47.994;8.820;2023-04-06T14:11:54;13.40;29.70
7384;DHT22;3733;47.994;8.820;2023-04-06T14:14:20;13.40;29.00
7384;DHT22;3733;47.994;8.820;2023-04-06T14:16:46;13.40;27.90
7384;DHT22;3733;47.994;8.820;2023-04-06T14:19:14;13.50;28.70
7384;DHT22;3733;47.994;8.820;2023-04-06T14:21:41;13.40;27.70
7384;DHT22;3733;47.994;8.820;2023-04-06T14:24:09;13.30;28.30
7384;DHT22;3733;47.994;8.820;2023-04-06T14:26:38;13.20;28.40
7384;DHT22;3733;47.994;8.820;2023-04-06T14:29:04;13.10;29.30
7384;DHT22;3733;47.994;8.820;2023-04-06T14:31:31;13.10;29.20
7384;DHT22;3733;47.994;8.820;2023-04-06T14:33:57;12.90;29.50
7384;DHT22;3733;47.994;8.820;2023-04-06T14:36:23;12.80;29.60
7384;DHT22;3733;47.994;8.820;2023-04-06T14:38:49;12.70;29.60
7384;DHT22;3733;47.994;8.820;2023-04-06T14:41:19;12.60;28.80
7384;DHT22;3733;47.994;8.820;2023-04-06T14:43:48;12.50;28.50
7384;DHT22;3733;47.994;8.820;2023-04-06T14:46:14;12.40;28.60
7384;DHT22;3733;47.994;8.820;2023-04-06T14:48:41;12.30;29.30
7384;DHT22;3733;47.994;8.820;2023-04-06T14:51:06;12.20;29.70
7384;DHT22;3733;47.994;8.820;2023-04-06T14:53:32;12.30;30.30
7384;DHT22;3733;47.994;8.820;2023-04-06T14:55:58;12.40;30.40
7384;DHT22;3733;47.994;8.820;2023-04-06T14:58:25;12.50;30.80
7384;DHT22;3733;47.994;8.820;2023-04-06T15:00:58;12.50;30.50
7384;DHT22;3733;47.994;8.820;2023-04-06T15:03:24;12.40;30.80
7384;DHT22;3733;47.994;8.820;2023-04-06T15:05:54;12.30;31.00
7384;DHT22;3733;47.994;8.820;2023-04-06T15:08:21;12.20;31.70
7384;DHT22;3733;47.994;8.820;2023-04-06T15:10:48;12.10;31.80
7384;DHT22;3733;47.994;8.820;2023-04-06T15:13:14;12.10;33.20
7384;DHT22;3733;47.994;8.820;2023-04-06T15:15:41;12.20;32.80
7384;DHT22;3733;47.994;8.820;2023-04-06T15:18:07;12.30;32.70
7384;DHT22;3733;47.994;8.820;2023-04-06T15:20:32;12.30;32.40
7384;DHT22;3733;47.994;8.820;2023-04-06T15:22:58;12.30;32.50
7384;DHT22;3733;47.994;8.820;2023-04-06T15:25:24;12.20;32.60
7384;DHT22;3733;47.994;8.820;2023-04-06T15:27:50;12.10;32.80
7384;DHT22;3733;47.994;8.820;2023-04-06T15:30:15;12.10;33.00
7384;DHT22;3733;47.994;8.820;2023-04-06T15:32:51;12.10;32.90
7384;DHT22;3733;47.994;8.820;2023-04-06T15:35:17;12.10;32.90
7384;DHT22;3733;47.994;8.820;2023-04-06T15:37:42;12.20;33.30
7384;DHT22;3733;47.994;8.820;2023-04-06T15:40:08;12.20;31.70
7384;DHT22;3733;47.994;8.820;2023-04-06T15:42:39;12.20;31.70
7384;DHT22;3733;47.994;8.820;2023-04-06T15:45:05;12.10;31.20
7384;DHT22;3733;47.994;8.820;2023-04-06T15:47:31;12.00;30.10
7384;DHT22;3733;47.994;8.820;2023-04-06T15:49:57;12.00;29.90
7384;DHT22;3733;47.994;8.820;2023-04-06T15:52:23;11.90;30.40
7384;DHT22;3733;47.994;8.820;2023-04-06T15:54:49;11.90;32.20
7384;DHT22;3733;47.994;8.820;2023-04-06T15:57:15;11.80;32.40
7384;DHT22;3733;47.994;8.820;2023-04-06T15:59:40;11.80;32.10
7384;DHT22;3733;47.994;8.820;2023-04-06T16:02:06;11.70;31.70
7384;DHT22;3733;47.994;8.820;2023-04-06T16:04:31;11.60;31.50
7384;DHT22;3733;47.994;8.820;2023-04-06T16:06:57;11.50;30.80
7384;DHT22;3733;47.994;8.820;2023-04-06T16:09:22;11.40;30.50
7384;DHT22;3733;47.994;8.820;2023-04-06T16:11:48;11.40;30.60
7384;DHT22;3733;47.994;8.820;2023-04-06T16:14:14;11.30;30.10